createdAt,value
2018-04-02T00:00:50.807Z,0.00
2018-04-02T00:01:50.813Z,0.00
2018-04-02T00:02:50.858Z,0.00
2018-04-02T00:03:50.897Z,0.00
2018-04-02T00:04:50.943Z,0.00
2018-04-02T00:05:51.004Z,0.00
2018-04-02T00:06:51.020Z,0.00
2018-04-02T00:07:51.063Z,0.00
2018-04-02T00:08:51.185Z,0.00
2018-04-02T00:09:51.148Z,0.00
2018-04-02T00:10:51.190Z,0.00
2018-04-02T00:11:51.233Z,0.00
2018-04-02T00:12:51.273Z,0.00
2018-04-02T00:13:51.343Z,0.00
2018-04-02T00:14:51.365Z,0.00
2018-04-02T00:15:51.398Z,0.00
2018-04-02T00:16:51.439Z,0.00
2018-04-02T00:17:51.484Z,0.00
2018-04-02T00:18:51.554Z,0.00
2018-04-02T00:19:51.565Z,0.00
2018-04-02T00:20:51.611Z,0.00
2018-04-02T00:21:51.650Z,0.00
2018-04-02T00:22:51.692Z,0.00
2018-04-02T00:23:51.759Z,0.00
2018-04-02T00:24:51.774Z,0.00
2018-04-02T00:25:51.814Z,0.00
2018-04-02T00:26:51.859Z,0.00
2018-04-02T00:27:51.934Z,0.00
2018-04-02T00:28:51.966Z,0.00
2018-04-02T00:29:51.986Z,0.00
2018-04-02T00:30:52.023Z,0.00
2018-04-02T00:31:52.072Z,0.00
2018-04-02T00:32:52.107Z,0.00
2018-04-02T00:33:52.172Z,0.00
2018-04-02T00:34:52.226Z,0.00
2018-04-02T00:35:52.238Z,0.00
2018-04-02T00:36:52.274Z,0.00
2018-04-02T00:37:52.317Z,0.00
2018-04-02T00:38:52.394Z,0.00
2018-04-02T00:39:52.400Z,0.00
2018-04-02T00:40:52.441Z,0.00
2018-04-02T00:41:52.484Z,0.00
2018-04-02T00:42:52.525Z,0.00
2018-04-02T00:43:52.598Z,0.00
2018-04-02T00:44:53.496Z,0.00
2018-04-02T00:45:52.649Z,0.00
2018-04-02T00:46:52.691Z,0.00
2018-04-02T00:47:52.733Z,0.00
2018-04-02T00:48:52.823Z,0.00
2018-04-02T00:49:52.840Z,0.00
2018-04-02T00:50:52.862Z,0.00
2018-04-02T00:51:52.897Z,0.00
2018-04-02T00:52:52.938Z,0.00
2018-04-02T00:53:52.980Z,0.00
2018-04-02T00:54:53.054Z,0.00
2018-04-02T00:55:53.068Z,0.00
2018-04-02T00:56:53.106Z,0.00
2018-04-02T00:57:53.149Z,0.00
2018-04-02T00:58:53.189Z,0.00
2018-04-02T00:59:53.265Z,0.00
2018-04-02T01:00:53.271Z,0.00
2018-04-02T01:01:53.316Z,0.00
2018-04-02T01:02:53.355Z,0.00
2018-04-02T01:03:53.398Z,0.00
2018-04-02T01:04:53.473Z,0.00
2018-04-02T01:05:53.482Z,0.00
2018-04-02T01:06:53.523Z,0.00
2018-04-02T01:07:53.566Z,0.00
2018-04-02T01:08:53.606Z,0.00
2018-04-02T01:09:53.693Z,0.00
2018-04-02T01:10:53.692Z,0.00
2018-04-02T01:11:53.729Z,0.00
2018-04-02T01:12:53.769Z,0.00
2018-04-02T01:13:53.822Z,0.00
2018-04-02T01:14:53.878Z,0.00
2018-04-02T01:15:53.919Z,0.00
2018-04-02T01:16:53.939Z,0.00
2018-04-02T01:17:53.978Z,0.00
2018-04-02T01:18:54.025Z,0.00
2018-04-02T01:19:54.061Z,0.00
2018-04-02T01:20:54.129Z,0.00
2018-04-02T01:21:54.149Z,0.00
2018-04-02T01:22:54.186Z,0.00
2018-04-02T01:23:54.229Z,0.00
2018-04-02T01:24:54.267Z,0.00
2018-04-02T01:25:54.351Z,0.00
2018-04-02T01:26:54.350Z,0.00
2018-04-02T01:27:54.391Z,0.00
2018-04-02T01:28:54.433Z,0.00
2018-04-02T01:29:54.474Z,0.00
2018-04-02T01:30:54.547Z,0.00
2018-04-02T01:31:54.563Z,0.00
2018-04-02T01:32:54.598Z,0.00
2018-04-02T01:33:54.640Z,0.00
2018-04-02T01:34:54.683Z,0.00
2018-04-02T01:35:54.753Z,0.00
2018-04-02T01:36:54.766Z,0.00
2018-04-02T01:37:54.836Z,0.00
2018-04-02T01:38:54.848Z,0.00
2018-04-02T01:39:54.892Z,0.00
2018-04-02T01:40:54.929Z,0.00
2018-04-02T01:41:54.971Z,0.00
2018-04-02T01:42:55.036Z,0.00
2018-04-02T01:43:55.101Z,0.00
2018-04-02T01:44:55.100Z,0.00
2018-04-02T01:45:55.136Z,0.00
2018-04-02T01:46:55.205Z,0.00
2018-04-02T01:47:55.220Z,0.00
2018-04-02T01:48:55.285Z,0.00
2018-04-02T01:49:55.306Z,0.00
2018-04-02T01:50:55.345Z,0.00
2018-04-02T01:51:55.386Z,0.00
2018-04-02T01:52:55.429Z,0.00
2018-04-02T01:53:55.491Z,0.00
2018-04-02T01:54:55.510Z,0.00
2018-04-02T01:55:55.555Z,0.00
2018-04-02T01:56:55.640Z,0.00
2018-04-02T01:57:55.633Z,0.00
2018-04-02T01:58:55.710Z,0.00
2018-04-02T01:59:55.722Z,0.00
2018-04-02T02:00:55.758Z,0.00
2018-04-02T02:01:55.800Z,0.00
2018-04-02T02:02:55.842Z,0.00
2018-04-02T02:03:55.912Z,0.00
2018-04-02T02:04:55.923Z,0.00
2018-04-02T02:05:55.972Z,0.00
2018-04-02T02:06:56.010Z,0.00
2018-04-02T02:07:56.049Z,0.00
2018-04-02T02:08:56.115Z,0.00
2018-04-02T02:09:56.323Z,0.00
2018-04-02T02:10:56.176Z,0.00
2018-04-02T02:11:56.220Z,0.00
2018-04-02T02:12:56.256Z,0.00
2018-04-02T02:13:56.294Z,0.00
2018-04-02T02:14:56.377Z,0.00
2018-04-02T02:15:56.380Z,0.00
2018-04-02T02:16:56.419Z,0.00
2018-04-02T02:17:56.466Z,0.00
2018-04-02T02:18:56.502Z,0.00
2018-04-02T02:19:56.579Z,0.00
2018-04-02T02:20:56.589Z,0.00
2018-04-02T02:21:56.629Z,0.00
2018-04-02T02:22:56.666Z,0.00
2018-04-02T02:23:56.711Z,0.00
2018-04-02T02:24:56.785Z,0.00
2018-04-02T02:25:56.793Z,0.00
2018-04-02T02:26:56.833Z,0.00
2018-04-02T02:27:56.878Z,0.00
2018-04-02T02:28:56.916Z,0.00
2018-04-02T02:29:56.983Z,0.00
2018-04-02T02:30:57.000Z,0.00
2018-04-02T02:31:57.063Z,0.00
2018-04-02T02:32:57.083Z,0.00
2018-04-02T02:33:57.126Z,0.00
2018-04-02T02:34:57.181Z,0.00
2018-04-02T02:35:57.208Z,0.00
2018-04-02T02:36:57.273Z,0.00
2018-04-02T02:37:57.289Z,0.00
2018-04-02T02:38:57.331Z,0.00
2018-04-02T02:39:57.372Z,0.00
2018-04-02T02:40:57.412Z,0.00
2018-04-02T02:41:57.477Z,0.00
2018-04-02T02:42:57.520Z,0.00
2018-04-02T02:43:57.537Z,0.00
2018-04-02T02:44:57.578Z,0.00
2018-04-02T02:45:57.633Z,0.00
2018-04-02T02:46:57.663Z,0.00
2018-04-02T02:47:57.730Z,0.00
2018-04-02T02:48:57.743Z,0.00
2018-04-02T02:49:57.818Z,0.00
2018-04-02T02:50:57.826Z,0.00
2018-04-02T02:51:57.867Z,0.00
2018-04-02T02:52:57.932Z,0.00
2018-04-02T02:53:57.951Z,0.00
2018-04-02T02:54:57.991Z,0.00
2018-04-02T02:55:58.036Z,0.00
2018-04-02T02:56:58.074Z,0.00
2018-04-02T02:57:58.141Z,0.00
2018-04-02T02:58:58.157Z,0.00
2018-04-02T02:59:58.199Z,0.00
2018-04-02T03:00:58.239Z,0.00
2018-04-02T03:01:58.281Z,0.00
2018-04-02T03:02:58.345Z,0.00
2018-04-02T03:03:58.363Z,0.00
2018-04-02T03:04:58.405Z,0.00
2018-04-02T03:05:58.445Z,0.00
2018-04-02T03:06:58.485Z,0.00
2018-04-02T03:07:58.561Z,0.00
2018-04-02T03:08:58.567Z,0.00
2018-04-02T03:09:58.610Z,0.00
2018-04-02T03:10:58.650Z,0.00
2018-04-02T03:11:58.691Z,0.00
2018-04-02T03:12:58.766Z,0.00
2018-04-02T03:13:58.774Z,0.00
2018-04-02T03:14:58.814Z,0.00
2018-04-02T03:15:58.855Z,0.00
2018-04-02T03:16:58.897Z,0.00
2018-04-02T03:17:58.964Z,0.00
2018-04-02T03:18:59.006Z,0.00
2018-04-02T03:19:59.025Z,0.00
2018-04-02T03:20:59.064Z,0.00
2018-04-02T03:21:59.104Z,0.00
2018-04-02T03:22:59.146Z,0.00
2018-04-02T03:23:59.212Z,0.00
2018-04-02T03:24:59.235Z,0.00
2018-04-02T03:25:59.270Z,0.00
2018-04-02T03:26:59.313Z,0.00
2018-04-02T03:27:59.354Z,0.00
2018-04-02T03:28:59.414Z,0.00
2018-04-02T03:29:59.460Z,0.00
2018-04-02T03:30:59.478Z,0.00
2018-04-02T03:31:59.518Z,0.00
2018-04-02T03:33:00.279Z,0.00
2018-04-02T03:33:59.601Z,0.00
2018-04-02T03:34:59.662Z,0.00
2018-04-02T03:35:59.704Z,0.00
2018-04-02T03:36:59.721Z,0.00
2018-04-02T03:37:59.763Z,0.00
2018-04-02T03:38:59.806Z,0.00
2018-04-02T03:39:59.847Z,0.00
2018-04-02T03:40:59.924Z,0.00
2018-04-02T03:41:59.937Z,0.00
2018-04-02T03:42:59.969Z,0.00
2018-04-02T03:44:00.014Z,0.00
2018-04-02T03:45:00.053Z,0.00
2018-04-02T03:46:00.123Z,0.00
2018-04-02T03:47:00.141Z,0.00
2018-04-02T03:48:00.177Z,0.00
2018-04-02T03:49:00.218Z,0.00
2018-04-02T03:50:00.260Z,0.00
2018-04-02T03:51:00.323Z,0.00
2018-04-02T03:52:00.364Z,0.00
2018-04-02T03:53:00.383Z,0.00
2018-04-02T03:54:00.425Z,0.00
2018-04-02T03:55:00.465Z,0.00
2018-04-02T03:56:00.506Z,0.00
2018-04-02T03:57:00.576Z,0.00
2018-04-02T03:58:00.644Z,0.00
2018-04-02T03:59:00.633Z,0.00
2018-04-02T04:00:00.675Z,0.00
2018-04-02T04:01:00.713Z,0.00
2018-04-02T04:02:00.775Z,0.00
2018-04-02T04:03:00.818Z,0.00
2018-04-02T04:04:00.838Z,0.00
2018-04-02T04:05:00.881Z,0.00
2018-04-02T04:06:00.926Z,0.00
2018-04-02T04:07:00.986Z,0.00
2018-04-02T04:08:01.002Z,0.00
2018-04-02T04:09:01.070Z,0.00
2018-04-02T04:10:01.089Z,0.00
2018-04-02T04:11:01.129Z,0.00
2018-04-02T04:12:01.176Z,0.00
2018-04-02T04:13:01.212Z,0.00
2018-04-02T04:14:01.275Z,0.00
2018-04-02T04:15:01.294Z,0.00
2018-04-02T04:16:01.336Z,0.00
2018-04-02T04:17:01.373Z,0.00
2018-04-02T04:18:01.415Z,0.00
2018-04-02T04:19:01.489Z,0.00
2018-04-02T04:20:01.497Z,0.00
2018-04-02T04:21:01.543Z,0.00
2018-04-02T04:22:01.589Z,0.00
2018-04-02T04:23:01.621Z,0.00
2018-04-02T04:24:01.703Z,0.00
2018-04-02T04:25:01.707Z,0.00
2018-04-02T04:26:01.744Z,0.00
2018-04-02T04:27:01.788Z,0.00
2018-04-02T04:28:01.830Z,0.00
2018-04-02T04:29:01.897Z,4.00
2018-04-02T04:30:01.909Z,4.00
2018-04-02T04:31:01.956Z,0.00
2018-04-02T04:32:01.990Z,4.00
2018-04-02T04:33:02.033Z,4.00
2018-04-02T04:34:02.097Z,8.00
2018-04-02T04:35:02.145Z,8.00
2018-04-02T04:36:02.167Z,8.00
2018-04-02T04:37:02.200Z,12.00
2018-04-02T04:38:02.240Z,12.00
2018-04-02T04:39:02.280Z,16.00
2018-04-02T04:40:02.347Z,16.00
2018-04-02T04:41:02.386Z,20.00
2018-04-02T04:42:02.402Z,24.00
2018-04-02T04:43:02.444Z,32.00
2018-04-02T04:44:02.484Z,36.00
2018-04-02T04:45:02.560Z,44.00
2018-04-02T04:46:02.567Z,52.00
2018-04-02T04:47:02.610Z,60.00
2018-04-02T04:48:02.650Z,72.00
2018-04-02T04:49:02.691Z,84.00
2018-04-02T04:50:02.765Z,96.00
2018-04-02T04:51:02.774Z,112.00
2018-04-02T04:52:02.816Z,128.00
2018-04-02T04:53:02.855Z,144.00
2018-04-02T04:54:02.895Z,168.00
2018-04-02T04:55:02.963Z,188.00
2018-04-02T04:56:03.000Z,212.00
2018-04-02T04:57:03.018Z,244.00
2018-04-02T04:58:03.063Z,268.00
2018-04-02T04:59:03.101Z,296.00
2018-04-02T05:00:03.143Z,328.00
2018-04-02T05:01:03.221Z,368.00
2018-04-02T05:02:03.225Z,404.00
2018-04-02T05:03:03.266Z,444.00
2018-04-02T05:04:03.310Z,492.00
2018-04-02T05:05:03.356Z,540.00
2018-04-02T05:06:03.422Z,584.00
2018-04-02T05:07:03.435Z,632.00
2018-04-02T05:08:03.478Z,684.00
2018-04-02T05:09:03.514Z,732.00
2018-04-02T05:10:03.557Z,780.00
2018-04-02T05:11:03.620Z,832.00
2018-04-02T05:12:03.688Z,884.00
2018-04-02T05:13:03.678Z,936.00
2018-04-02T05:14:03.718Z,984.00
2018-04-02T05:15:03.760Z,1036.00
2018-04-02T05:16:03.804Z,1092.00
2018-04-02T05:17:03.881Z,1140.00
2018-04-02T05:18:03.885Z,1192.00
2018-04-02T05:19:03.926Z,1244.00
2018-04-02T05:20:03.968Z,1300.00
2018-04-02T05:21:04.009Z,1356.00
2018-04-02T05:22:04.083Z,1416.00
2018-04-02T05:23:04.092Z,1468.00
2018-04-02T05:24:04.134Z,1516.00
2018-04-02T05:25:04.198Z,1576.00
2018-04-02T05:26:04.215Z,1628.00
2018-04-02T05:27:04.258Z,1680.00
2018-04-02T05:28:04.329Z,1720.00
2018-04-02T05:29:04.339Z,1772.00
2018-04-02T05:30:04.380Z,1820.00
2018-04-02T05:31:04.423Z,1864.00
2018-04-02T05:32:04.465Z,1912.00
2018-04-02T05:33:04.530Z,1956.00
2018-04-02T05:34:04.546Z,2000.00
2018-04-02T05:35:04.592Z,2048.00
2018-04-02T05:36:04.630Z,2100.00
2018-04-02T05:37:04.696Z,2168.00
2018-04-02T05:38:04.738Z,2240.00
2018-04-02T05:39:04.755Z,2288.00
2018-04-02T05:40:04.796Z,2344.00
2018-04-02T05:41:04.848Z,2400.00
2018-04-02T05:42:04.880Z,2460.00
2018-04-02T05:43:04.957Z,2512.00
2018-04-02T05:44:04.966Z,2568.00
2018-04-02T05:45:05.472Z,2612.00
2018-04-02T05:46:05.048Z,2672.00
2018-04-02T05:47:05.091Z,2716.00
2018-04-02T05:48:05.170Z,2772.00
2018-04-02T05:49:05.172Z,2800.00
2018-04-02T05:50:05.212Z,2820.00
2018-04-02T05:51:05.261Z,2844.00
2018-04-02T05:52:05.295Z,2876.00
2018-04-02T05:53:05.359Z,2892.00
2018-04-02T05:54:05.379Z,2956.00
2018-04-02T05:55:05.447Z,2984.00
2018-04-02T05:56:05.460Z,3024.00
2018-04-02T05:57:05.502Z,3068.00
2018-04-02T05:58:05.544Z,3108.00
2018-04-02T05:59:05.589Z,3148.00
2018-04-02T06:00:05.653Z,3204.00
2018-04-02T06:01:05.671Z,3232.00
2018-04-02T06:02:05.711Z,3272.00
2018-04-02T06:03:05.753Z,3304.00
2018-04-02T06:04:05.802Z,3308.00
2018-04-02T06:05:05.880Z,3352.00
2018-04-02T06:06:05.879Z,3512.00
2018-04-02T06:07:05.921Z,3688.00
2018-04-02T06:08:05.965Z,3788.00
2018-04-02T06:09:06.004Z,3888.00
2018-04-02T06:10:06.081Z,3980.00
2018-04-02T06:11:06.088Z,4088.00
2018-04-02T06:12:06.132Z,4220.00
2018-04-02T06:13:06.177Z,4348.00
2018-04-02T06:14:06.215Z,4472.00
2018-04-02T06:15:06.293Z,4580.00
2018-04-02T06:16:06.338Z,4648.00
2018-04-02T06:17:06.342Z,4736.00
2018-04-02T06:18:06.381Z,4848.00
2018-04-02T06:19:06.425Z,4932.00
2018-04-02T06:20:06.504Z,5008.00
2018-04-02T06:21:06.514Z,5092.00
2018-04-02T06:22:07.470Z,5176.00
2018-04-02T06:23:06.593Z,5248.00
2018-04-02T06:24:06.637Z,5268.00
2018-04-02T06:25:06.701Z,5280.00
2018-04-02T06:26:06.720Z,5296.00
2018-04-02T06:27:06.786Z,5316.00
2018-04-02T06:28:06.811Z,5308.00
2018-04-02T06:29:06.848Z,5296.00
2018-04-02T06:30:06.896Z,5268.00
2018-04-02T06:31:06.956Z,5204.00
2018-04-02T06:32:06.977Z,5120.00
2018-04-02T06:33:07.022Z,4976.00
2018-04-02T06:34:07.058Z,4944.00
2018-04-02T06:35:07.112Z,4912.00
2018-04-02T06:36:07.169Z,4912.00
2018-04-02T06:37:07.251Z,5060.00
2018-04-02T06:38:07.231Z,5080.00
2018-04-02T06:39:07.277Z,5100.00
2018-04-02T06:40:07.314Z,5148.00
2018-04-02T06:41:07.380Z,7192.00
2018-04-02T06:42:07.425Z,12400.00
2018-04-02T06:43:07.443Z,17152.00
2018-04-02T06:44:07.486Z,12412.00
2018-04-02T06:45:07.549Z,14196.00
2018-04-02T06:46:07.595Z,20608.00
2018-04-02T06:47:07.616Z,22560.00
2018-04-02T06:48:07.681Z,21408.00
2018-04-02T06:49:07.700Z,15456.00
2018-04-02T06:50:07.746Z,14528.00
2018-04-02T06:51:07.787Z,13608.00
2018-04-02T06:52:07.869Z,21440.00
2018-04-02T06:53:07.873Z,30560.00
2018-04-02T06:54:07.916Z,30080.00
2018-04-02T06:55:07.960Z,34528.00
2018-04-02T06:56:08.002Z,34688.00
2018-04-02T06:57:08.075Z,29600.00
2018-04-02T06:58:08.180Z,32288.00
2018-04-02T06:59:08.133Z,33248.00
2018-04-02T07:00:08.181Z,33056.00
2018-04-02T07:01:08.221Z,27904.00
2018-04-02T07:02:08.270Z,35936.00
2018-04-02T07:03:08.377Z,42240.00
2018-04-02T07:04:08.351Z,43648.00
2018-04-02T07:05:08.396Z,41376.00
2018-04-02T07:06:08.437Z,40928.00
2018-04-02T07:07:08.485Z,45024.00
2018-04-02T07:08:08.568Z,47072.00
2018-04-02T07:09:08.571Z,37632.00
2018-04-02T07:10:08.616Z,30048.00
2018-04-02T07:11:08.660Z,31904.00
2018-04-02T07:12:08.709Z,34752.00
2018-04-02T07:13:08.773Z,43456.00
2018-04-02T07:14:08.816Z,58976.00
2018-04-02T07:15:08.840Z,49280.00
2018-04-02T07:16:08.884Z,47968.00
2018-04-02T07:17:08.935Z,47712.00
2018-04-02T07:18:09.000Z,50560.00
2018-04-02T07:19:09.048Z,50208.00
2018-04-02T07:20:09.067Z,35968.00
2018-04-02T07:21:09.108Z,38912.00
2018-04-02T07:22:09.162Z,44832.00
2018-04-02T07:23:09.201Z,44416.00
2018-04-02T07:24:09.270Z,41792.00
2018-04-02T07:25:09.322Z,40896.00
2018-04-02T07:26:09.337Z,28736.00
2018-04-02T07:27:09.385Z,31552.00
2018-04-02T07:28:09.435Z,29888.00
2018-04-02T07:29:09.507Z,43712.00
2018-04-02T07:30:09.519Z,47264.00
2018-04-02T07:31:09.568Z,34848.00
2018-04-02T07:32:09.614Z,46336.00
2018-04-02T07:33:09.664Z,42048.00
2018-04-02T07:34:09.733Z,34432.00
2018-04-02T07:35:09.748Z,29536.00
2018-04-02T07:36:09.795Z,29632.00
2018-04-02T07:37:09.840Z,33440.00
2018-04-02T07:38:09.886Z,41984.00
2018-04-02T07:39:09.959Z,34368.00
2018-04-02T07:40:10.005Z,25760.00
2018-04-02T07:41:10.026Z,32384.00
2018-04-02T07:42:10.069Z,59296.00
2018-04-02T07:43:10.116Z,61408.00
2018-04-02T07:44:10.167Z,51904.00
2018-04-02T07:45:10.230Z,37824.00
2018-04-02T07:46:10.255Z,53952.00
2018-04-02T07:47:10.300Z,53568.00
2018-04-02T07:48:10.343Z,67968.00
2018-04-02T07:49:10.392Z,61664.00
2018-04-02T07:50:10.459Z,55808.00
2018-04-02T07:51:10.483Z,60992.00
2018-04-02T07:52:10.531Z,65024.00
2018-04-02T07:53:10.577Z,66432.00
2018-04-02T07:54:10.623Z,71712.00
2018-04-02T07:55:10.700Z,56512.00
2018-04-02T07:56:10.742Z,42912.00
2018-04-02T07:57:10.799Z,38528.00
2018-04-02T07:58:10.810Z,42464.00
2018-04-02T07:59:10.859Z,40864.00
2018-04-02T08:00:10.906Z,56320.00
2018-04-02T08:01:10.984Z,59072.00
2018-04-02T08:02:11.003Z,51136.00
2018-04-02T08:03:11.048Z,57248.00
2018-04-02T08:04:11.094Z,54144.00
2018-04-02T08:05:11.141Z,60928.00
2018-04-02T08:06:11.208Z,58496.00
2018-04-02T08:07:11.259Z,49600.00
2018-04-02T08:08:11.280Z,51968.00
2018-04-02T08:09:11.335Z,48576.00
2018-04-02T08:10:11.373Z,46368.00
2018-04-02T08:11:11.431Z,44928.00
2018-04-02T08:12:11.547Z,51040.00
2018-04-02T08:13:11.518Z,41056.00
2018-04-02T08:14:11.565Z,41344.00
2018-04-02T08:15:11.618Z,39872.00
2018-04-02T08:16:11.663Z,39328.00
2018-04-02T08:17:11.733Z,41472.00
2018-04-02T08:18:11.758Z,44320.00
2018-04-02T08:19:11.813Z,39520.00
2018-04-02T08:20:11.854Z,38848.00
2018-04-02T08:21:11.899Z,38272.00
2018-04-02T08:22:11.969Z,38272.00
2018-04-02T08:23:12.020Z,38496.00
2018-04-02T08:24:12.044Z,38848.00
2018-04-02T08:25:12.091Z,39136.00
2018-04-02T08:26:12.139Z,37728.00
2018-04-02T08:27:12.182Z,38496.00
2018-04-02T08:28:12.281Z,38432.00
2018-04-02T08:29:12.280Z,37760.00
2018-04-02T08:30:12.332Z,38080.00
2018-04-02T08:31:12.374Z,43296.00
2018-04-02T08:32:12.420Z,41760.00
2018-04-02T08:33:12.501Z,42080.00
2018-04-02T08:34:12.515Z,43872.00
2018-04-02T08:35:12.563Z,42464.00
2018-04-02T08:36:12.613Z,42784.00
2018-04-02T08:37:12.663Z,46080.00
2018-04-02T08:38:12.737Z,43072.00
2018-04-02T08:39:12.752Z,40512.00
2018-04-02T08:40:12.802Z,39744.00
2018-04-02T08:41:12.850Z,38560.00
2018-04-02T08:42:12.901Z,37408.00
2018-04-02T08:43:12.979Z,36640.00
2018-04-02T08:44:12.994Z,37216.00
2018-04-02T08:45:13.042Z,37024.00
2018-04-02T08:46:13.084Z,39680.00
2018-04-02T08:47:13.130Z,40256.00
2018-04-02T08:48:13.205Z,46368.00
2018-04-02T08:49:13.231Z,52160.00
2018-04-02T08:50:13.305Z,50048.00
2018-04-02T08:51:13.321Z,58624.00
2018-04-02T08:52:13.368Z,50912.00
2018-04-02T08:53:13.414Z,69824.00
2018-04-02T08:54:13.484Z,53888.00
2018-04-02T08:55:13.539Z,73248.00
2018-04-02T08:56:13.563Z,104448.00
2018-04-02T08:57:13.602Z,96032.00
2018-04-02T08:58:13.662Z,78272.00
2018-04-02T08:59:13.726Z,79872.00
2018-04-02T09:00:13.786Z,77184.00
2018-04-02T09:01:13.797Z,71616.00
2018-04-02T09:02:13.844Z,51328.00
2018-04-02T09:03:13.894Z,77952.00
2018-04-02T09:04:13.972Z,61920.00
2018-04-02T09:05:13.991Z,63488.00
2018-04-02T09:06:14.037Z,78848.00
2018-04-02T09:07:14.086Z,73664.00
2018-04-02T09:08:14.133Z,76224.00
2018-04-02T09:09:14.207Z,76864.00
2018-04-02T09:10:14.234Z,78272.00
2018-04-02T09:11:14.280Z,77856.00
2018-04-02T09:12:14.352Z,74592.00
2018-04-02T09:13:14.383Z,72096.00
2018-04-02T09:14:14.430Z,71648.00
2018-04-02T09:15:14.475Z,78144.00
2018-04-02T09:16:14.524Z,88768.00
2018-04-02T09:17:14.601Z,96320.00
2018-04-02T09:18:14.623Z,100768.00
2018-04-02T09:19:14.675Z,97856.00
2018-04-02T09:20:14.721Z,95104.00
2018-04-02T09:21:14.769Z,95232.00
2018-04-02T09:22:15.316Z,95552.00
2018-04-02T09:23:14.874Z,92512.00
2018-04-02T09:24:14.920Z,85184.00
2018-04-02T09:25:14.968Z,76032.00
2018-04-02T09:26:15.018Z,78464.00
2018-04-02T09:27:15.088Z,87968.00
2018-04-02T09:28:15.121Z,91968.00
2018-04-02T09:29:15.165Z,90816.00
2018-04-02T09:30:15.221Z,83552.00
2018-04-02T09:31:15.263Z,74880.00
2018-04-02T09:32:15.361Z,78336.00
2018-04-02T09:33:15.389Z,83712.00
2018-04-02T09:34:15.415Z,95616.00
2018-04-02T09:35:15.462Z,110816.00
2018-04-02T09:36:15.512Z,113472.00
2018-04-02T09:37:15.561Z,112096.00
2018-04-02T09:38:15.643Z,114976.00
2018-04-02T09:39:15.665Z,115104.00
2018-04-02T09:40:15.719Z,109184.00
2018-04-02T09:41:15.761Z,95328.00
2018-04-02T09:42:15.812Z,83168.00
2018-04-02T09:43:15.882Z,80672.00
2018-04-02T09:44:15.934Z,83392.00
2018-04-02T09:45:15.959Z,85664.00
2018-04-02T09:46:16.010Z,84928.00
2018-04-02T09:47:16.057Z,79648.00
2018-04-02T09:48:16.147Z,77472.00
2018-04-02T09:49:16.162Z,78240.00
2018-04-02T09:50:16.207Z,81888.00
2018-04-02T09:51:16.270Z,83104.00
2018-04-02T09:52:16.309Z,93216.00
2018-04-02T09:53:16.402Z,97952.00
2018-04-02T09:54:16.435Z,109216.00
2018-04-02T09:55:16.466Z,112672.00
2018-04-02T09:56:16.510Z,108576.00
2018-04-02T09:57:17.493Z,104512.00
2018-04-02T09:58:16.642Z,107424.00
2018-04-02T09:59:16.711Z,111680.00
2018-04-02T10:00:16.708Z,125088.00
2018-04-02T10:01:16.758Z,134144.00
2018-04-02T10:02:16.860Z,138592.00
2018-04-02T10:03:16.881Z,132256.00
2018-04-02T10:04:16.907Z,119680.00
2018-04-02T10:05:16.962Z,111680.00
2018-04-02T10:06:17.031Z,106976.00
2018-04-02T10:07:17.058Z,101472.00
2018-04-02T10:08:17.109Z,98496.00
2018-04-02T10:09:17.155Z,95872.00
2018-04-02T10:10:17.217Z,93088.00
2018-04-02T10:11:17.291Z,94240.00
2018-04-02T10:12:17.309Z,101120.00
2018-04-02T10:13:17.356Z,108160.00
2018-04-02T10:14:17.405Z,114368.00
2018-04-02T10:15:17.458Z,119392.00
2018-04-02T10:16:17.540Z,119776.00
2018-04-02T10:17:17.553Z,124064.00
2018-04-02T10:18:17.604Z,123520.00
2018-04-02T10:19:17.654Z,129632.00
2018-04-02T10:20:17.704Z,124800.00
2018-04-02T10:21:17.780Z,111648.00
2018-04-02T10:22:17.807Z,84832.00
2018-04-02T10:23:17.859Z,113888.00
2018-04-02T10:24:17.909Z,75200.00
2018-04-02T10:25:17.960Z,77920.00
2018-04-02T10:26:18.144Z,55008.00
2018-04-02T10:27:18.079Z,52096.00
2018-04-02T10:28:18.112Z,42304.00
2018-04-02T10:29:18.200Z,41888.00
2018-04-02T10:30:18.208Z,43008.00
2018-04-02T10:31:18.259Z,42752.00
2018-04-02T10:32:18.341Z,44768.00
2018-04-02T10:33:18.360Z,46016.00
2018-04-02T10:34:18.410Z,45600.00
2018-04-02T10:35:18.457Z,47904.00
2018-04-02T10:36:18.507Z,47104.00
2018-04-02T10:37:18.654Z,59904.00
2018-04-02T10:38:18.607Z,54048.00
2018-04-02T10:39:18.659Z,52480.00
2018-04-02T10:40:18.716Z,48608.00
2018-04-02T10:41:18.756Z,51680.00
2018-04-02T10:42:18.837Z,47776.00
2018-04-02T10:43:18.939Z,47264.00
2018-04-02T10:44:18.925Z,59456.00
2018-04-02T10:45:18.949Z,51552.00
2018-04-02T10:46:19.000Z,58688.00
2018-04-02T10:47:19.051Z,56416.00
2018-04-02T10:48:19.133Z,55104.00
2018-04-02T10:49:19.147Z,60928.00
2018-04-02T10:50:19.200Z,69760.00
2018-04-02T10:51:19.244Z,97216.00
2018-04-02T10:52:19.294Z,72448.00
2018-04-02T10:53:19.382Z,84096.00
2018-04-02T10:54:19.396Z,137600.00
2018-04-02T10:55:19.442Z,97376.00
2018-04-02T10:56:19.490Z,94976.00
2018-04-02T10:57:19.538Z,72320.00
2018-04-02T10:58:19.620Z,70464.00
2018-04-02T10:59:19.640Z,77344.00
2018-04-02T11:00:19.686Z,60448.00
2018-04-02T11:01:19.736Z,70592.00
2018-04-02T11:02:19.785Z,61248.00
2018-04-02T11:03:19.869Z,64320.00
2018-04-02T11:04:19.887Z,61504.00
2018-04-02T11:05:19.935Z,80672.00
2018-04-02T11:06:19.984Z,69088.00
2018-04-02T11:07:20.035Z,92640.00
2018-04-02T11:08:20.109Z,67552.00
2018-04-02T11:09:20.132Z,67520.00
2018-04-02T11:10:20.205Z,53696.00
2018-04-02T11:11:20.236Z,50432.00
2018-04-02T11:12:20.283Z,45856.00
2018-04-02T11:13:20.331Z,47232.00
2018-04-02T11:14:20.405Z,47648.00
2018-04-02T11:15:20.432Z,47488.00
2018-04-02T11:16:20.480Z,50624.00
2018-04-02T11:17:20.533Z,42784.00
2018-04-02T11:18:20.582Z,41888.00
2018-04-02T11:19:20.657Z,38752.00
2018-04-02T11:20:20.682Z,36992.00
2018-04-02T11:21:20.755Z,36160.00
2018-04-02T11:22:20.787Z,36864.00
2018-04-02T11:23:20.826Z,37632.00
2018-04-02T11:24:20.879Z,37856.00
2018-04-02T11:25:20.924Z,37728.00
2018-04-02T11:26:21.012Z,37248.00
2018-04-02T11:27:21.022Z,36448.00
2018-04-02T11:28:21.072Z,36000.00
2018-04-02T11:29:21.121Z,36256.00
2018-04-02T11:30:21.171Z,37376.00
2018-04-02T11:31:21.248Z,38336.00
2018-04-02T11:32:21.266Z,39872.00
2018-04-02T11:33:21.319Z,42112.00
2018-04-02T11:34:21.364Z,47680.00
2018-04-02T11:35:21.414Z,53664.00
2018-04-02T11:36:21.490Z,66624.00
2018-04-02T11:37:21.506Z,73728.00
2018-04-02T11:38:21.558Z,75008.00
2018-04-02T11:39:21.603Z,64128.00
2018-04-02T11:40:21.651Z,74880.00
2018-04-02T11:41:21.726Z,45376.00
2018-04-02T11:42:21.750Z,32928.00
2018-04-02T11:43:21.802Z,30816.00
2018-04-02T11:44:21.844Z,78240.00
2018-04-02T11:45:21.892Z,47552.00
2018-04-02T11:46:21.964Z,105216.00
2018-04-02T11:47:21.988Z,119104.00
2018-04-02T11:48:22.039Z,112896.00
2018-04-02T11:49:22.086Z,115840.00
2018-04-02T11:50:22.138Z,117056.00
2018-04-02T11:51:22.205Z,120192.00
2018-04-02T11:52:22.234Z,116576.00
2018-04-02T11:53:22.281Z,95488.00
2018-04-02T11:54:22.354Z,90944.00
2018-04-02T11:55:22.386Z,114720.00
2018-04-02T11:56:22.427Z,121952.00
2018-04-02T11:57:23.097Z,118176.00
2018-04-02T11:58:22.526Z,120864.00
2018-04-02T11:59:22.601Z,126112.00
2018-04-02T12:00:22.646Z,123616.00
2018-04-02T12:01:22.676Z,119328.00
2018-04-02T12:02:22.728Z,121312.00
2018-04-02T12:03:22.775Z,117376.00
2018-04-02T12:04:22.851Z,109632.00
2018-04-02T12:05:22.901Z,101312.00
2018-04-02T12:06:22.930Z,96352.00
2018-04-02T12:07:22.983Z,102016.00
2018-04-02T12:08:23.028Z,108992.00
2018-04-02T12:09:23.130Z,121856.00
2018-04-02T12:10:23.153Z,128384.00
2018-04-02T12:11:23.204Z,130976.00
2018-04-02T12:12:23.232Z,130496.00
2018-04-02T12:13:23.284Z,127008.00
2018-04-02T12:14:24.024Z,118752.00
2018-04-02T12:15:23.423Z,109280.00
2018-04-02T12:16:23.437Z,98272.00
2018-04-02T12:17:23.490Z,88032.00
2018-04-02T12:18:23.542Z,91040.00
2018-04-02T12:19:23.591Z,95392.00
2018-04-02T12:20:23.667Z,98016.00
2018-04-02T12:21:23.716Z,104800.00